sensor_id;sensor_type;location;lat;lon;timestamp;P1;durP1;ratioP1;P2;durP2;ratioP2
77876;SDS011;67251;50.844;7.978;2023-06-22T00:01:27;12.38;;;7.03;;
77876;SDS011;67251;50.844;7.978;2023-06-22T00:03:52;14.65;;;7.22;;
77876;SDS011;67251;50.844;7.978;2023-06-22T00:06:17;10.48;;;6.75;;
77876;SDS011;67251;50.844;7.978;2023-06-22T00:08:43;11.13;;;7.20;;
77876;SDS011;67251;50.844;7.978;2023-06-22T00:11:09;13.27;;;7.43;;
77876;SDS011;67251;50.844;7.978;2023-06-22T00:13:34;11.48;;;7.30;;
77876;SDS011;67251;50.844;7.978;2023-06-22T00:16:00;13.57;;;7.10;;
77876;SDS011;67251;50.844;7.978;2023-06-22T00:18:26;11.73;;;6.85;;
77876;SDS011;67251;50.844;7.978;2023-06-22T00:20:53;13.27;;;7.45;;
77876;SDS011;67251;50.844;7.978;2023-06-22T00:23:22;11.88;;;6.90;;
77876;SDS011;67251;50.844;7.978;2023-06-22T00:25:48;12.15;;;7.45;;
77876;SDS011;67251;50.844;7.978;2023-06-22T00:28:14;11.73;;;7.20;;
77876;SDS011;67251;50.844;7.978;2023-06-22T00:30:40;13.55;;;7.57;;
77876;SDS011;67251;50.844;7.978;2023-06-22T00:33:05;11.90;;;7.05;;
77876;SDS011;67251;50.844;7.978;2023-06-22T00:35:32;12.68;;;7.28;;
77876;SDS011;67251;50.844;7.978;2023-06-22T00:37:58;11.95;;;7.50;;
77876;SDS011;67251;50.844;7.978;2023-06-22T00:40:32;13.57;;;7.35;;
77876;SDS011;67251;50.844;7.978;2023-06-22T00:42:58;13.60;;;7.95;;
77876;SDS011;67251;50.844;7.978;2023-06-22T00:45:24;12.65;;;7.53;;
77876;SDS011;67251;50.844;7.978;2023-06-22T00:47:51;13.48;;;7.93;;
77876;SDS011;67251;50.844;7.978;2023-06-22T00:50:21;13.23;;;7.53;;
77876;SDS011;67251;50.844;7.978;2023-06-22T00:52:49;12.55;;;7.10;;
77876;SDS011;67251;50.844;7.978;2023-06-22T00:55:18;12.55;;;6.90;;
77876;SDS011;67251;50.844;7.978;2023-06-22T00:57:47;12.68;;;7.75;;
77876;SDS011;67251;50.844;7.978;2023-06-22T01:00:13;12.70;;;7.50;;
77876;SDS011;67251;50.844;7.978;2023-06-22T01:02:43;12.80;;;7.22;;
77876;SDS011;67251;50.844;7.978;2023-06-22T01:05:15;12.13;;;7.47;;
77876;SDS011;67251;50.844;7.978;2023-06-22T01:07:49;12.10;;;7.50;;
77876;SDS011;67251;50.844;7.978;2023-06-22T01:13:44;14.27;;;7.72;;
77876;SDS011;67251;50.844;7.978;2023-06-22T01:18:55;12.90;;;7.65;;
77876;SDS011;67251;50.844;7.978;2023-06-22T01:21:25;13.50;;;7.63;;
77876;SDS011;67251;50.844;7.978;2023-06-22T01:24:06;12.60;;;7.60;;
77876;SDS011;67251;50.844;7.978;2023-06-22T01:26:39;16.38;;;8.50;;
77876;SDS011;67251;50.844;7.978;2023-06-22T01:29:26;13.35;;;8.13;;
77876;SDS011;67251;50.844;7.978;2023-06-22T01:31:54;12.13;;;7.50;;
77876;SDS011;67251;50.844;7.978;2023-06-22T01:34:21;12.95;;;8.20;;
77876;SDS011;67251;50.844;7.978;2023-06-22T01:36:48;13.23;;;8.23;;
77876;SDS011;67251;50.844;7.978;2023-06-22T01:39:15;12.27;;;7.80;;
77876;SDS011;67251;50.844;7.978;2023-06-22T01:41:41;13.70;;;7.93;;
77876;SDS011;67251;50.844;7.978;2023-06-22T01:44:07;12.93;;;8.15;;
77876;SDS011;67251;50.844;7.978;2023-06-22T01:46:34;13.18;;;8.02;;
77876;SDS011;67251;50.844;7.978;2023-06-22T01:52:29;13.68;;;8.20;;
77876;SDS011;67251;50.844;7.978;2023-06-22T01:54:54;12.73;;;8.02;;
77876;SDS011;67251;50.844;7.978;2023-06-22T01:57:19;13.63;;;8.38;;
77876;SDS011;67251;50.844;7.978;2023-06-22T01:59:51;13.20;;;8.02;;
77876;SDS011;67251;50.844;7.978;2023-06-22T02:02:37;14.07;;;7.93;;
77876;SDS011;67251;50.844;7.978;2023-06-22T02:05:11;14.52;;;8.20;;
77876;SDS011;67251;50.844;7.978;2023-06-22T02:07:52;16.00;;;8.32;;
77876;SDS011;67251;50.844;7.978;2023-06-22T02:10:20;15.93;;;8.57;;
77876;SDS011;67251;50.844;7.978;2023-06-22T02:12:48;18.25;;;8.38;;
77876;SDS011;67251;50.844;7.978;2023-06-22T02:15:15;15.30;;;9.00;;
77876;SDS011;67251;50.844;7.978;2023-06-22T02:17:42;16.17;;;9.75;;
77876;SDS011;67251;50.844;7.978;2023-06-22T02:20:13;16.65;;;9.18;;
77876;SDS011;67251;50.844;7.978;2023-06-22T02:22:39;17.48;;;8.98;;
77876;SDS011;67251;50.844;7.978;2023-06-22T02:25:04;17.52;;;9.45;;
77876;SDS011;67251;50.844;7.978;2023-06-22T02:27:30;17.08;;;9.45;;
77876;SDS011;67251;50.844;7.978;2023-06-22T02:29:56;16.63;;;9.40;;
77876;SDS011;67251;50.844;7.978;2023-06-22T02:32:22;17.73;;;10.32;;
77876;SDS011;67251;50.844;7.978;2023-06-22T02:34:47;14.27;;;9.07;;
77876;SDS011;67251;50.844;7.978;2023-06-22T02:37:13;16.58;;;9.77;;
77876;SDS011;67251;50.844;7.978;2023-06-22T02:39:40;16.05;;;10.48;;
77876;SDS011;67251;50.844;7.978;2023-06-22T02:42:05;16.40;;;10.48;;
77876;SDS011;67251;50.844;7.978;2023-06-22T02:44:31;18.42;;;10.57;;
77876;SDS011;67251;50.844;7.978;2023-06-22T02:46:57;17.67;;;10.40;;
77876;SDS011;67251;50.844;7.978;2023-06-22T02:49:23;18.27;;;10.70;;
77876;SDS011;67251;50.844;7.978;2023-06-22T02:51:48;18.60;;;10.43;;
77876;SDS011;67251;50.844;7.978;2023-06-22T02:54:14;20.73;;;9.30;;
77876;SDS011;67251;50.844;7.978;2023-06-22T02:56:39;21.90;;;10.02;;
77876;SDS011;67251;50.844;7.978;2023-06-22T02:59:05;17.42;;;9.02;;
77876;SDS011;67251;50.844;7.978;2023-06-22T03:01:31;22.45;;;9.95;;
77876;SDS011;67251;50.844;7.978;2023-06-22T03:04:02;20.42;;;10.95;;
77876;SDS011;67251;50.844;7.978;2023-06-22T03:06:28;20.75;;;10.63;;
77876;SDS011;67251;50.844;7.978;2023-06-22T03:09:01;20.98;;;10.95;;
77876;SDS011;67251;50.844;7.978;2023-06-22T03:11:29;22.17;;;12.45;;
77876;SDS011;67251;50.844;7.978;2023-06-22T03:13:55;19.88;;;11.10;;
77876;SDS011;67251;50.844;7.978;2023-06-22T03:16:21;19.75;;;10.93;;
77876;SDS011;67251;50.844;7.978;2023-06-22T03:18:46;20.67;;;11.02;;
77876;SDS011;67251;50.844;7.978;2023-06-22T03:21:12;19.65;;;11.27;;
77876;SDS011;67251;50.844;7.978;2023-06-22T03:23:37;22.33;;;12.80;;
77876;SDS011;67251;50.844;7.978;2023-06-22T03:26:02;20.98;;;11.77;;
77876;SDS011;67251;50.844;7.978;2023-06-22T03:28:29;21.50;;;11.70;;
77876;SDS011;67251;50.844;7.978;2023-06-22T03:30:54;23.73;;;11.43;;
77876;SDS011;67251;50.844;7.978;2023-06-22T03:33:22;17.75;;;11.18;;
77876;SDS011;67251;50.844;7.978;2023-06-22T03:35:47;19.63;;;9.70;;
77876;SDS011;67251;50.844;7.978;2023-06-22T03:38:12;16.38;;;9.32;;
77876;SDS011;67251;50.844;7.978;2023-06-22T03:40:38;15.30;;;9.32;;
77876;SDS011;67251;50.844;7.978;2023-06-22T03:43:03;14.55;;;8.68;;
77876;SDS011;67251;50.844;7.978;2023-06-22T03:45:29;14.40;;;8.48;;
77876;SDS011;67251;50.844;7.978;2023-06-22T03:47:54;14.82;;;8.07;;
77876;SDS011;67251;50.844;7.978;2023-06-22T03:50:19;13.88;;;8.07;;
77876;SDS011;67251;50.844;7.978;2023-06-22T03:52:45;15.07;;;8.73;;
77876;SDS011;67251;50.844;7.978;2023-06-22T03:55:11;17.15;;;9.63;;
77876;SDS011;67251;50.844;7.978;2023-06-22T03:57:36;16.55;;;8.73;;
77876;SDS011;67251;50.844;7.978;2023-06-22T04:00:02;15.75;;;9.15;;
77876;SDS011;67251;50.844;7.978;2023-06-22T04:02:30;18.98;;;9.32;;
77876;SDS011;67251;50.844;7.978;2023-06-22T04:04:56;18.65;;;9.85;;
77876;SDS011;67251;50.844;7.978;2023-06-22T04:07:21;18.20;;;10.00;;
77876;SDS011;67251;50.844;7.978;2023-06-22T04:09:46;19.63;;;10.45;;
77876;SDS011;67251;50.844;7.978;2023-06-22T04:12:12;18.40;;;10.95;;
77876;SDS011;67251;50.844;7.978;2023-06-22T04:14:37;22.10;;;11.27;;
77876;SDS011;67251;50.844;7.978;2023-06-22T04:17:02;18.33;;;10.95;;
77876;SDS011;67251;50.844;7.978;2023-06-22T04:19:28;19.10;;;10.95;;
77876;SDS011;67251;50.844;7.978;2023-06-22T04:21:53;17.35;;;9.90;;
77876;SDS011;67251;50.844;7.978;2023-06-22T04:24:19;16.30;;;9.45;;
77876;SDS011;67251;50.844;7.978;2023-06-22T04:26:44;19.05;;;9.27;;
77876;SDS011;67251;50.844;7.978;2023-06-22T04:29:12;15.05;;;9.40;;
77876;SDS011;67251;50.844;7.978;2023-06-22T04:31:38;17.02;;;9.23;;
77876;SDS011;67251;50.844;7.978;2023-06-22T04:34:04;14.52;;;7.97;;
77876;SDS011;67251;50.844;7.978;2023-06-22T04:36:34;17.17;;;8.88;;
77876;SDS011;67251;50.844;7.978;2023-06-22T04:39:03;14.52;;;8.55;;
77876;SDS011;67251;50.844;7.978;2023-06-22T04:41:34;15.35;;;8.85;;
77876;SDS011;67251;50.844;7.978;2023-06-22T04:44:10;16.25;;;8.98;;
77876;SDS011;67251;50.844;7.978;2023-06-22T04:46:36;13.52;;;8.55;;
77876;SDS011;67251;50.844;7.978;2023-06-22T04:49:12;17.02;;;8.75;;
77876;SDS011;67251;50.844;7.978;2023-06-22T04:51:40;17.63;;;9.15;;
77876;SDS011;67251;50.844;7.978;2023-06-22T04:54:08;17.45;;;9.13;;
77876;SDS011;67251;50.844;7.978;2023-06-22T04:56:34;16.58;;;8.48;;
77876;SDS011;67251;50.844;7.978;2023-06-22T04:59:00;15.95;;;8.70;;
77876;SDS011;67251;50.844;7.978;2023-06-22T05:01:26;17.00;;;9.98;;
77876;SDS011;67251;50.844;7.978;2023-06-22T05:03:51;15.55;;;9.73;;
77876;SDS011;67251;50.844;7.978;2023-06-22T05:06:23;17.58;;;9.25;;
77876;SDS011;67251;50.844;7.978;2023-06-22T05:08:58;16.58;;;9.45;;
77876;SDS011;67251;50.844;7.978;2023-06-22T05:11:24;17.02;;;9.05;;
77876;SDS011;67251;50.844;7.978;2023-06-22T05:16:19;16.77;;;9.07;;
77876;SDS011;67251;50.844;7.978;2023-06-22T05:18:52;14.80;;;9.32;;
77876;SDS011;67251;50.844;7.978;2023-06-22T05:21:22;14.27;;;8.60;;
77876;SDS011;67251;50.844;7.978;2023-06-22T05:23:49;16.90;;;9.45;;
77876;SDS011;67251;50.844;7.978;2023-06-22T05:26:15;15.95;;;8.70;;
77876;SDS011;67251;50.844;7.978;2023-06-22T05:28:40;14.23;;;8.65;;
77876;SDS011;67251;50.844;7.978;2023-06-22T05:31:06;16.77;;;9.63;;
77876;SDS011;67251;50.844;7.978;2023-06-22T05:33:31;14.02;;;8.43;;
77876;SDS011;67251;50.844;7.978;2023-06-22T05:35:57;15.95;;;8.85;;
77876;SDS011;67251;50.844;7.978;2023-06-22T05:38:22;15.10;;;9.88;;
77876;SDS011;67251;50.844;7.978;2023-06-22T05:40:47;13.57;;;8.10;;
77876;SDS011;67251;50.844;7.978;2023-06-22T05:43:13;14.35;;;8.68;;
77876;SDS011;67251;50.844;7.978;2023-06-22T05:45:38;14.85;;;9.48;;
77876;SDS011;67251;50.844;7.978;2023-06-22T05:48:04;14.13;;;8.65;;
77876;SDS011;67251;50.844;7.978;2023-06-22T05:50:29;17.17;;;9.60;;
77876;SDS011;67251;50.844;7.978;2023-06-22T05:52:55;13.68;;;8.70;;
77876;SDS011;67251;50.844;7.978;2023-06-22T05:55:20;14.50;;;9.13;;
77876;SDS011;67251;50.844;7.978;2023-06-22T05:57:45;14.23;;;8.02;;
77876;SDS011;67251;50.844;7.978;2023-06-22T06:00:11;15.65;;;7.88;;
77876;SDS011;67251;50.844;7.978;2023-06-22T06:02:37;16.55;;;7.90;;
77876;SDS011;67251;50.844;7.978;2023-06-22T06:05:08;13.60;;;8.00;;
77876;SDS011;67251;50.844;7.978;2023-06-22T06:07:34;14.02;;;7.53;;
77876;SDS011;67251;50.844;7.978;2023-06-22T06:10:00;11.98;;;7.57;;
77876;SDS011;67251;50.844;7.978;2023-06-22T06:12:25;13.43;;;7.80;;
77876;SDS011;67251;50.844;7.978;2023-06-22T06:14:51;11.07;;;7.32;;
77876;SDS011;67251;50.844;7.978;2023-06-22T06:17:18;12.75;;;8.02;;
77876;SDS011;67251;50.844;7.978;2023-06-22T06:19:43;14.45;;;8.45;;
77876;SDS011;67251;50.844;7.978;2023-06-22T06:22:09;13.40;;;7.30;;
77876;SDS011;67251;50.844;7.978;2023-06-22T06:24:34;14.02;;;7.57;;
77876;SDS011;67251;50.844;7.978;2023-06-22T06:26:59;14.05;;;7.43;;
77876;SDS011;67251;50.844;7.978;2023-06-22T06:29:25;11.77;;;7.60;;
77876;SDS011;67251;50.844;7.978;2023-06-22T06:31:50;12.70;;;7.53;;
77876;SDS011;67251;50.844;7.978;2023-06-22T06:34:15;10.43;;;7.13;;
77876;SDS011;67251;50.844;7.978;2023-06-22T06:36:41;10.02;;;6.18;;
77876;SDS011;67251;50.844;7.978;2023-06-22T06:39:07;8.68;;;5.50;;
77876;SDS011;67251;50.844;7.978;2023-06-22T06:41:32;10.70;;;6.38;;
77876;SDS011;67251;50.844;7.978;2023-06-22T06:43:57;11.02;;;6.13;;
77876;SDS011;67251;50.844;7.978;2023-06-22T06:46:23;12.15;;;6.40;;
77876;SDS011;67251;50.844;7.978;2023-06-22T06:48:48;11.70;;;6.03;;
77876;SDS011;67251;50.844;7.978;2023-06-22T06:51:14;11.90;;;6.20;;
77876;SDS011;67251;50.844;7.978;2023-06-22T06:53:39;10.60;;;6.15;;
77876;SDS011;67251;50.844;7.978;2023-06-22T06:56:04;9.15;;;5.55;;
77876;SDS011;67251;50.844;7.978;2023-06-22T06:58:30;10.40;;;5.55;;
77876;SDS011;67251;50.844;7.978;2023-06-22T07:00:56;9.32;;;5.65;;
77876;SDS011;67251;50.844;7.978;2023-06-22T07:03:21;10.82;;;5.93;;
77876;SDS011;67251;50.844;7.978;2023-06-22T07:05:46;9.90;;;5.45;;
77876;SDS011;67251;50.844;7.978;2023-06-22T07:08:12;9.27;;;5.97;;
77876;SDS011;67251;50.844;7.978;2023-06-22T07:10:37;8.95;;;5.85;;
77876;SDS011;67251;50.844;7.978;2023-06-22T07:13:03;11.65;;;6.80;;
77876;SDS011;67251;50.844;7.978;2023-06-22T07:15:28;8.98;;;5.78;;
77876;SDS011;67251;50.844;7.978;2023-06-22T07:17:53;9.40;;;6.13;;
77876;SDS011;67251;50.844;7.978;2023-06-22T07:20:18;10.60;;;6.35;;
77876;SDS011;67251;50.844;7.978;2023-06-22T07:22:44;11.93;;;6.50;;
77876;SDS011;67251;50.844;7.978;2023-06-22T07:25:10;11.05;;;6.53;;
77876;SDS011;67251;50.844;7.978;2023-06-22T07:27:45;9.60;;;6.22;;
77876;SDS011;67251;50.844;7.978;2023-06-22T07:30:21;10.98;;;6.32;;
77876;SDS011;67251;50.844;7.978;2023-06-22T07:32:46;9.48;;;6.05;;
77876;SDS011;67251;50.844;7.978;2023-06-22T07:35:12;10.18;;;6.15;;
77876;SDS011;67251;50.844;7.978;2023-06-22T07:37:37;10.23;;;6.05;;
77876;SDS011;67251;50.844;7.978;2023-06-22T07:40:03;8.60;;;5.85;;
77876;SDS011;67251;50.844;7.978;2023-06-22T07:42:31;10.00;;;5.93;;
77876;SDS011;67251;50.844;7.978;2023-06-22T07:44:58;11.15;;;6.93;;
77876;SDS011;67251;50.844;7.978;2023-06-22T07:47:23;10.30;;;6.05;;
77876;SDS011;67251;50.844;7.978;2023-06-22T07:49:51;9.82;;;6.35;;
77876;SDS011;67251;50.844;7.978;2023-06-22T07:52:17;9.25;;;6.20;;
77876;SDS011;67251;50.844;7.978;2023-06-22T07:54:42;8.82;;;6.30;;
77876;SDS011;67251;50.844;7.978;2023-06-22T07:57:08;11.13;;;7.15;;
77876;SDS011;67251;50.844;7.978;2023-06-22T07:59:33;10.15;;;6.72;;
77876;SDS011;67251;50.844;7.978;2023-06-22T08:01:58;10.40;;;6.97;;
77876;SDS011;67251;50.844;7.978;2023-06-22T08:04:24;10.07;;;6.78;;
77876;SDS011;67251;50.844;7.978;2023-06-22T08:06:49;10.60;;;7.63;;
77876;SDS011;67251;50.844;7.978;2023-06-22T08:09:14;12.20;;;7.20;;
77876;SDS011;67251;50.844;7.978;2023-06-22T08:11:40;12.65;;;7.13;;
77876;SDS011;67251;50.844;7.978;2023-06-22T08:14:05;12.38;;;7.45;;
77876;SDS011;67251;50.844;7.978;2023-06-22T08:16:31;9.98;;;7.03;;
77876;SDS011;67251;50.844;7.978;2023-06-22T08:18:56;11.93;;;7.53;;
77876;SDS011;67251;50.844;7.978;2023-06-22T08:21:22;14.05;;;8.00;;
77876;SDS011;67251;50.844;7.978;2023-06-22T08:23:47;12.82;;;7.90;;
77876;SDS011;67251;50.844;7.978;2023-06-22T08:26:14;13.73;;;7.85;;
77876;SDS011;67251;50.844;7.978;2023-06-22T08:28:39;11.18;;;6.90;;
77876;SDS011;67251;50.844;7.978;2023-06-22T08:31:05;12.38;;;7.75;;
77876;SDS011;67251;50.844;7.978;2023-06-22T08:33:30;12.20;;;7.95;;
77876;SDS011;67251;50.844;7.978;2023-06-22T08:35:56;10.13;;;6.85;;
77876;SDS011;67251;50.844;7.978;2023-06-22T08:38:23;11.50;;;7.13;;
77876;SDS011;67251;50.844;7.978;2023-06-22T08:40:48;9.60;;;6.75;;
77876;SDS011;67251;50.844;7.978;2023-06-22T08:43:14;10.93;;;6.97;;
77876;SDS011;67251;50.844;7.978;2023-06-22T08:45:39;10.60;;;7.47;;
77876;SDS011;67251;50.844;7.978;2023-06-22T08:48:05;9.82;;;7.00;;
77876;SDS011;67251;50.844;7.978;2023-06-22T08:50:30;9.38;;;6.63;;
77876;SDS011;67251;50.844;7.978;2023-06-22T08:52:56;7.13;;;5.43;;
77876;SDS011;67251;50.844;7.978;2023-06-22T08:55:21;8.43;;;5.28;;
77876;SDS011;67251;50.844;7.978;2023-06-22T08:57:46;9.15;;;5.40;;
77876;SDS011;67251;50.844;7.978;2023-06-22T09:00:12;9.63;;;6.32;;
77876;SDS011;67251;50.844;7.978;2023-06-22T09:02:42;8.18;;;5.53;;
77876;SDS011;67251;50.844;7.978;2023-06-22T09:05:08;8.93;;;5.70;;
77876;SDS011;67251;50.844;7.978;2023-06-22T09:07:34;8.70;;;5.50;;
77876;SDS011;67251;50.844;7.978;2023-06-22T09:10:00;7.95;;;5.45;;
77876;SDS011;67251;50.844;7.978;2023-06-22T09:12:25;9.27;;;5.60;;
77876;SDS011;67251;50.844;7.978;2023-06-22T09:14:52;9.40;;;5.38;;
77876;SDS011;67251;50.844;7.978;2023-06-22T09:17:33;8.32;;;5.55;;
77876;SDS011;67251;50.844;7.978;2023-06-22T09:20:00;9.63;;;5.68;;
77876;SDS011;67251;50.844;7.978;2023-06-22T09:22:26;8.52;;;5.72;;
77876;SDS011;67251;50.844;7.978;2023-06-22T09:24:54;8.60;;;5.82;;
77876;SDS011;67251;50.844;7.978;2023-06-22T09:27:21;8.07;;;5.65;;
77876;SDS011;67251;50.844;7.978;2023-06-22T09:29:47;10.57;;;5.60;;
77876;SDS011;67251;50.844;7.978;2023-06-22T09:32:12;8.73;;;5.32;;
77876;SDS011;67251;50.844;7.978;2023-06-22T09:34:38;7.68;;;5.47;;
77876;SDS011;67251;50.844;7.978;2023-06-22T09:37:03;10.75;;;6.00;;
77876;SDS011;67251;50.844;7.978;2023-06-22T09:39:29;8.32;;;5.63;;
77876;SDS011;67251;50.844;7.978;2023-06-22T09:41:54;9.13;;;5.47;;
77876;SDS011;67251;50.844;7.978;2023-06-22T09:44:20;8.43;;;5.63;;
77876;SDS011;67251;50.844;7.978;2023-06-22T09:46:45;10.02;;;5.72;;
77876;SDS011;67251;50.844;7.978;2023-06-22T09:49:10;8.32;;;5.30;;
77876;SDS011;67251;50.844;7.978;2023-06-22T09:51:36;9.48;;;5.60;;
77876;SDS011;67251;50.844;7.978;2023-06-22T09:54:01;9.77;;;5.63;;
77876;SDS011;67251;50.844;7.978;2023-06-22T09:56:26;8.88;;;5.10;;
77876;SDS011;67251;50.844;7.978;2023-06-22T09:58:53;9.00;;;4.85;;
77876;SDS011;67251;50.844;7.978;2023-06-22T10:01:18;8.15;;;5.43;;
77876;SDS011;67251;50.844;7.978;2023-06-22T10:03:45;9.05;;;5.25;;
77876;SDS011;67251;50.844;7.978;2023-06-22T10:06:11;8.48;;;5.50;;
77876;SDS011;67251;50.844;7.978;2023-06-22T10:08:36;8.38;;;5.63;;
77876;SDS011;67251;50.844;7.978;2023-06-22T10:11:05;9.05;;;5.50;;
77876;SDS011;67251;50.844;7.978;2023-06-22T10:13:30;8.57;;;5.32;;
77876;SDS011;67251;50.844;7.978;2023-06-22T10:15:56;9.00;;;6.05;;
77876;SDS011;67251;50.844;7.978;2023-06-22T10:18:21;9.05;;;5.47;;
77876;SDS011;67251;50.844;7.978;2023-06-22T10:20:47;7.60;;;5.68;;
77876;SDS011;67251;50.844;7.978;2023-06-22T10:23:15;7.43;;;5.50;;
77876;SDS011;67251;50.844;7.978;2023-06-22T10:25:40;9.07;;;5.82;;
77876;SDS011;67251;50.844;7.978;2023-06-22T10:28:06;9.88;;;6.47;;
77876;SDS011;67251;50.844;7.978;2023-06-22T10:30:32;8.15;;;5.43;;
77876;SDS011;67251;50.844;7.978;2023-06-22T10:32:57;9.35;;;5.80;;
77876;SDS011;67251;50.844;7.978;2023-06-22T10:35:23;9.23;;;6.13;;
77876;SDS011;67251;50.844;7.978;2023-06-22T10:37:48;9.45;;;5.45;;
77876;SDS011;67251;50.844;7.978;2023-06-22T10:40:14;9.73;;;5.95;;
77876;SDS011;67251;50.844;7.978;2023-06-22T10:42:41;12.18;;;6.40;;
77876;SDS011;67251;50.844;7.978;2023-06-22T10:45:06;8.30;;;5.50;;
77876;SDS011;67251;50.844;7.978;2023-06-22T10:47:33;9.00;;;5.85;;
77876;SDS011;67251;50.844;7.978;2023-06-22T10:49:59;8.63;;;5.70;;
77876;SDS011;67251;50.844;7.978;2023-06-22T10:52:24;9.93;;;6.10;;
77876;SDS011;67251;50.844;7.978;2023-06-22T10:54:49;10.07;;;6.60;;
77876;SDS011;67251;50.844;7.978;2023-06-22T10:57:15;10.55;;;5.75;;
77876;SDS011;67251;50.844;7.978;2023-06-22T10:59:40;8.77;;;5.97;;
77876;SDS011;67251;50.844;7.978;2023-06-22T11:02:05;9.07;;;6.05;;
77876;SDS011;67251;50.844;7.978;2023-06-22T11:04:31;9.85;;;5.75;;
77876;SDS011;67251;50.844;7.978;2023-06-22T11:06:56;11.63;;;6.53;;
77876;SDS011;67251;50.844;7.978;2023-06-22T11:09:22;10.23;;;6.22;;
77876;SDS011;67251;50.844;7.978;2023-06-22T11:11:47;10.75;;;6.25;;
77876;SDS011;67251;50.844;7.978;2023-06-22T11:14:14;8.70;;;5.45;;
77876;SDS011;67251;50.844;7.978;2023-06-22T11:16:40;9.13;;;6.15;;
77876;SDS011;67251;50.844;7.978;2023-06-22T11:19:05;10.80;;;5.93;;
77876;SDS011;67251;50.844;7.978;2023-06-22T11:21:31;10.57;;;6.18;;
77876;SDS011;67251;50.844;7.978;2023-06-22T11:23:57;11.93;;;7.10;;
77876;SDS011;67251;50.844;7.978;2023-06-22T11:26:23;12.38;;;7.38;;
77876;SDS011;67251;50.844;7.978;2023-06-22T11:28:49;11.05;;;6.35;;
77876;SDS011;67251;50.844;7.978;2023-06-22T11:31:14;10.80;;;6.90;;
77876;SDS011;67251;50.844;7.978;2023-06-22T11:33:39;10.85;;;6.75;;
77876;SDS011;67251;50.844;7.978;2023-06-22T11:36:05;11.07;;;7.72;;
77876;SDS011;67251;50.844;7.978;2023-06-22T11:38:30;10.07;;;6.57;;
77876;SDS011;67251;50.844;7.978;2023-06-22T11:40:57;10.55;;;7.38;;
77876;SDS011;67251;50.844;7.978;2023-06-22T11:43:23;9.88;;;6.47;;
77876;SDS011;67251;50.844;7.978;2023-06-22T11:45:48;13.98;;;7.97;;
77876;SDS011;67251;50.844;7.978;2023-06-22T11:48:14;11.50;;;7.25;;
77876;SDS011;67251;50.844;7.978;2023-06-22T11:50:39;10.77;;;6.97;;
77876;SDS011;67251;50.844;7.978;2023-06-22T11:53:05;12.95;;;7.15;;
77876;SDS011;67251;50.844;7.978;2023-06-22T11:55:30;10.85;;;7.15;;
77876;SDS011;67251;50.844;7.978;2023-06-22T11:57:56;10.73;;;6.85;;
77876;SDS011;67251;50.844;7.978;2023-06-22T12:00:25;10.13;;;7.35;;
77876;SDS011;67251;50.844;7.978;2023-06-22T12:02:50;11.35;;;7.47;;
77876;SDS011;67251;50.844;7.978;2023-06-22T12:05:17;12.73;;;7.22;;
77876;SDS011;67251;50.844;7.978;2023-06-22T12:07:46;12.85;;;7.53;;
77876;SDS011;67251;50.844;7.978;2023-06-22T12:10:12;10.40;;;7.50;;
77876;SDS011;67251;50.844;7.978;2023-06-22T12:12:38;12.68;;;7.57;;
77876;SDS011;67251;50.844;7.978;2023-06-22T12:15:03;12.07;;;7.40;;
77876;SDS011;67251;50.844;7.978;2023-06-22T12:17:29;11.07;;;7.60;;
77876;SDS011;67251;50.844;7.978;2023-06-22T12:19:55;14.05;;;7.18;;
77876;SDS011;67251;50.844;7.978;2023-06-22T12:22:20;11.48;;;6.93;;
77876;SDS011;67251;50.844;7.978;2023-06-22T12:24:46;11.07;;;6.50;;
77876;SDS011;67251;50.844;7.978;2023-06-22T12:27:11;10.18;;;6.90;;
77876;SDS011;67251;50.844;7.978;2023-06-22T12:29:36;9.93;;;5.85;;
77876;SDS011;67251;50.844;7.978;2023-06-22T12:32:02;9.07;;;6.55;;
77876;SDS011;67251;50.844;7.978;2023-06-22T12:34:28;11.93;;;6.40;;
77876;SDS011;67251;50.844;7.978;2023-06-22T12:36:53;9.40;;;6.63;;
77876;SDS011;67251;50.844;7.978;2023-06-22T12:39:19;12.32;;;5.80;;
77876;SDS011;67251;50.844;7.978;2023-06-22T12:41:45;9.82;;;6.65;;
77876;SDS011;67251;50.844;7.978;2023-06-22T12:44:10;11.57;;;6.20;;
77876;SDS011;67251;50.844;7.978;2023-06-22T12:46:36;9.88;;;5.60;;
77876;SDS011;67251;50.844;7.978;2023-06-22T12:49:03;8.75;;;5.10;;
77876;SDS011;67251;50.844;7.978;2023-06-22T12:51:29;9.38;;;4.82;;
77876;SDS011;67251;50.844;7.978;2023-06-22T12:53:54;9.23;;;5.20;;
77876;SDS011;67251;50.844;7.978;2023-06-22T12:56:20;7.07;;;3.65;;
77876;SDS011;67251;50.844;7.978;2023-06-22T12:58:45;7.82;;;3.50;;
77876;SDS011;67251;50.844;7.978;2023-06-22T13:01:13;6.38;;;3.45;;
77876;SDS011;67251;50.844;7.978;2023-06-22T13:03:43;6.13;;;2.92;;
77876;SDS011;67251;50.844;7.978;2023-06-22T13:06:08;6.07;;;3.22;;
77876;SDS011;67251;50.844;7.978;2023-06-22T13:08:33;6.65;;;3.40;;
77876;SDS011;67251;50.844;7.978;2023-06-22T13:10:59;7.50;;;3.75;;
77876;SDS011;67251;50.844;7.978;2023-06-22T13:13:24;6.00;;;3.22;;
77876;SDS011;67251;50.844;7.978;2023-06-22T13:15:50;6.25;;;3.08;;
77876;SDS011;67251;50.844;7.978;2023-06-22T13:18:17;7.40;;;3.80;;
77876;SDS011;67251;50.844;7.978;2023-06-22T13:20:43;6.22;;;3.45;;
77876;SDS011;67251;50.844;7.978;2023-06-22T13:23:10;6.90;;;4.15;;
77876;SDS011;67251;50.844;7.978;2023-06-22T13:25:36;6.45;;;3.80;;
77876;SDS011;67251;50.844;7.978;2023-06-22T13:28:01;6.13;;;3.50;;
77876;SDS011;67251;50.844;7.978;2023-06-22T13:30:26;6.82;;;3.63;;
77876;SDS011;67251;50.844;7.978;2023-06-22T13:32:52;9.02;;;3.70;;
77876;SDS011;67251;50.844;7.978;2023-06-22T13:35:17;6.35;;;2.83;;
77876;SDS011;67251;50.844;7.978;2023-06-22T13:37:42;5.25;;;2.75;;
77876;SDS011;67251;50.844;7.978;2023-06-22T13:40:08;5.65;;;2.90;;
77876;SDS011;67251;50.844;7.978;2023-06-22T13:42:33;5.80;;;3.13;;
77876;SDS011;67251;50.844;7.978;2023-06-22T13:44:59;7.63;;;3.08;;
77876;SDS011;67251;50.844;7.978;2023-06-22T13:47:24;8.27;;;2.97;;
77876;SDS011;67251;50.844;7.978;2023-06-22T13:49:50;9.35;;;3.15;;
77876;SDS011;67251;50.844;7.978;2023-06-22T13:52:15;5.82;;;3.20;;
77876;SDS011;67251;50.844;7.978;2023-06-22T13:54:40;6.40;;;3.45;;
77876;SDS011;67251;50.844;7.978;2023-06-22T13:57:06;6.50;;;3.30;;
77876;SDS011;67251;50.844;7.978;2023-06-22T13:59:31;7.20;;;3.42;;
77876;SDS011;67251;50.844;7.978;2023-06-22T14:01:57;7.10;;;4.10;;
77876;SDS011;67251;50.844;7.978;2023-06-22T14:04:23;6.28;;;3.10;;
77876;SDS011;67251;50.844;7.978;2023-06-22T14:06:48;8.70;;;3.55;;
77876;SDS011;67251;50.844;7.978;2023-06-22T14:09:13;6.55;;;2.88;;
77876;SDS011;67251;50.844;7.978;2023-06-22T14:11:39;6.93;;;3.33;;
77876;SDS011;67251;50.844;7.978;2023-06-22T14:14:04;6.30;;;3.45;;
77876;SDS011;67251;50.844;7.978;2023-06-22T14:16:30;8.88;;;3.40;;
77876;SDS011;67251;50.844;7.978;2023-06-22T14:18:55;6.97;;;3.83;;
77876;SDS011;67251;50.844;7.978;2023-06-22T14:21:20;7.00;;;3.58;;
77876;SDS011;67251;50.844;7.978;2023-06-22T14:23:46;6.70;;;4.10;;
77876;SDS011;67251;50.844;7.978;2023-06-22T14:26:14;6.43;;;3.50;;
77876;SDS011;67251;50.844;7.978;2023-06-22T14:28:43;6.18;;;3.50;;
77876;SDS011;67251;50.844;7.978;2023-06-22T14:31:16;7.43;;;3.92;;
77876;SDS011;67251;50.844;7.978;2023-06-22T14:33:45;6.28;;;3.60;;
77876;SDS011;67251;50.844;7.978;2023-06-22T14:36:14;7.55;;;3.92;;
77876;SDS011;67251;50.844;7.978;2023-06-22T14:38:40;6.65;;;3.95;;
77876;SDS011;67251;50.844;7.978;2023-06-22T14:41:06;7.53;;;4.13;;
77876;SDS011;67251;50.844;7.978;2023-06-22T14:43:31;7.07;;;4.03;;
77876;SDS011;67251;50.844;7.978;2023-06-22T14:45:56;7.60;;;4.22;;